Time;durP1;ratioP1;P1;durP2;ratioP2;P2;SDS_P1;SDS_P2;PMS_P1;PMS_P2;Temp;Humidity;BMP_temperature;BMP_pressure;BME280_temperature;BME280_humidity;BME280_pressure;Samples;Min_cycle;Max_cycle;Signal;HPM_P1;HPM_P2
2023/09/20 00:02:22;;;;;;;8.82;3.40;;;;;;;17.49;100.00;100564.63;4987799;28;20133;-52
2023/09/20 00:04:47;;;;;;;11.48;3.90;;;;;;;17.56;100.00;100571.31;4960346;28;20118;-52
2023/09/20 00:07:13;;;;;;;9.70;3.50;;;;;;;17.14;100.00;100513.72;4926145;28;20094;-55
2023/09/20 00:09:38;;;;;;;10.55;3.58;;;;;;;17.11;100.00;100514.78;4966908;28;20497;-53
2023/09/20 00:12:04;;;;;;;7.40;3.20;;;;;;;17.07;100.00;100529.25;4956845;28;20047;-54
2023/09/20 00:14:29;;;;;;;9.25;3.47;;;;;;;17.25;100.00;100561.78;4961841;28;20059;-51
2023/09/20 00:16:55;;;;;;;15.65;3.65;;;;;;;16.92;100.00;100516.91;4938594;29;20047;-55
2023/09/20 00:19:21;;;;;;;11.23;3.92;;;;;;;17.19;100.00;100580.78;4960678;28;20558;-50
2023/09/20 00:21:47;;;;;;;13.10;4.07;;;;;;;17.18;100.00;100574.63;4954765;28;20039;-52
2023/09/20 00:24:12;;;;;;;8.90;3.55;;;;;;;17.18;100.00;100577.28;4968643;28;20035;-50
2023/09/20 00:26:37;;;;;;;6.55;3.45;;;;;;;16.90;100.00;100540.06;4980869;28;20462;-51
2023/09/20 00:29:06;;;;;;;8.90;3.65;;;;;;;17.14;100.00;100577.56;4994389;28;20117;-52
2023/09/20 00:31:32;;;;;;;10.93;3.72;;;;;;;17.18;100.00;100571.09;4954041;28;20078;-50
2023/09/20 00:33:58;;;;;;;9.27;3.28;;;;;;;16.77;100.00;100501.94;4955947;28;20479;-52
2023/09/20 00:36:24;;;;;;;10.93;3.22;;;;;;;17.14;100.00;100577.56;4955431;28;20035;-48
2023/09/20 00:38:49;;;;;;;7.07;3.05;;;;;;;16.98;100.00;100572.38;4955751;28;20047;-50
2023/09/20 00:41:15;;;;;;;8.05;3.42;;;;;;;17.08;100.00;100569.97;4954457;29;20039;-49
2023/09/20 00:43:41;;;;;;;9.75;3.65;;;;;;;17.04;100.00;100552.50;4973450;28;20066;-50
2023/09/20 00:46:09;;;;;;;10.32;3.58;;;;;;;16.75;100.00;100514.47;4974422;28;20045;-47
2023/09/20 00:48:35;;;;;;;11.18;3.83;;;;;;;16.85;100.00;100528.88;4958640;28;20046;-53
2023/09/20 00:51:02;;;;;;;9.25;3.45;;;;;;;16.99;100.00;100560.75;4962688;28;20290;-52
2023/09/20 00:53:28;;;;;;;10.45;3.70;;;;;;;17.03;100.00;100572.91;4973485;28;20410;-49
2023/09/20 00:55:54;;;;;;;10.82;3.88;;;;;;;16.64;100.00;100507.16;4974813;28;20034;-51
2023/09/20 00:58:19;;;;;;;9.05;3.70;;;;;;;16.90;100.00;100548.03;4964961;28;20545;-50
2023/09/20 01:00:46;;;;;;;9.82;4.10;;;;;;;16.65;100.00;100502.69;4954308;28;20050;-50
2023/09/20 01:03:16;;;;;;;9.73;4.03;;;;;;;16.99;100.00;100551.97;4968147;28;20047;-50
2023/09/20 01:05:42;;;;;;;9.77;3.22;;;;;;;16.98;100.00;100555.56;4969622;28;20434;-52
2023/09/20 01:08:07;;;;;;;7.13;3.42;;;;;;;16.89;100.00;100549.00;4953284;28;20027;-50
2023/09/20 01:10:36;;;;;;;9.55;4.28;;;;;;;16.69;100.00;100491.81;4966260;28;20046;-52
2023/09/20 01:13:04;;;;;;;12.93;4.07;;;;;;;17.09;100.00;100559.25;4974074;28;20022;-47
2023/09/20 01:15:31;;;;;;;12.73;4.45;;;;;;;17.13;100.00;100544.78;4991035;28;20034;-51
2023/09/20 01:17:58;;;;;;;9.68;3.72;;;;;;;16.73;100.00;100466.72;4973947;28;20413;-50
2023/09/20 01:20:25;;;;;;;8.35;3.30;;;;;;;17.24;100.00;100539.66;4972516;28;20393;-50
2023/09/20 01:22:54;;;;;;;9.20;3.65;;;;;;;16.92;100.00;100474.38;4974423;28;20031;-49
2023/09/20 01:25:36;;;;;;;11.63;3.90;;;;;;;17.33;100.00;100543.53;4928152;29;20042;-49
2023/09/20 01:28:06;;;;;;;14.70;4.57;;;;;;;17.29;100.00;100532.22;4955026;28;20035;-50
2023/09/20 01:30:36;;;;;;;13.38;3.63;;;;;;;16.99;100.00;100478.34;4952770;29;20375;-51
2023/09/20 01:33:06;;;;;;;9.07;3.50;;;;;;;17.01;100.00;100483.56;4954893;29;20045;-52
2023/09/20 01:35:32;;;;;;;9.35;3.55;;;;;;;17.41;100.00;100552.72;4952796;28;20039;-51
2023/09/20 01:37:58;;;;;;;10.48;4.15;;;;;;;17.19;100.00;100512.47;4954213;28;20363;-47
2023/09/20 01:40:26;;;;;;;8.57;3.97;;;;;;;17.40;100.00;100560.78;4954502;28;20070;-49
2023/09/20 01:42:58;;;;;;;7.70;3.30;;;;;;;17.48;100.00;100547.84;4954419;28;20055;-49
2023/09/20 01:45:23;;;;;;;15.80;4.07;;;;;;;17.13;100.00;100488.09;4953092;29;20023;-51
2023/09/20 01:47:51;;;;;;;9.57;3.65;;;;;;;17.48;100.00;100541.66;4965624;28;20086;-52
2023/09/20 01:50:20;;;;;;;11.70;3.83;;;;;;;17.52;100.00;100553.78;4969372;28;20398;-49
2023/09/20 01:52:48;;;;;;;12.20;4.45;;;;;;;17.19;100.00;100490.38;4968137;28;20057;-53
2023/09/20 01:55:15;;;;;;;9.77;3.90;;;;;;;17.18;100.00;100505.47;4992941;28;20030;-52
2023/09/20 01:57:45;;;;;;;12.70;3.90;;;;;;;17.54;100.00;100551.91;4973617;28;20468;-51
2023/09/20 02:00:16;;;;;;;9.27;3.90;;;;;;;17.56;100.00;100563.34;4954195;29;20090;-54
2023/09/20 02:02:43;;;;;;;10.85;4.20;;;;;;;17.11;100.00;100479.34;4953329;29;20396;-50
2023/09/20 02:05:10;;;;;;;10.13;3.78;;;;;;;17.17;100.00;100501.09;4954321;29;20475;-53
2023/09/20 02:07:35;;;;;;;7.95;3.90;;;;;;;17.53;100.00;100542.22;4965352;28;20145;-49
2023/09/20 02:10:00;;;;;;;9.25;3.72;;;;;;;17.59;100.00;100556.00;4972613;28;20145;-51
2023/09/20 02:12:26;;;;;;;8.52;3.45;;;;;;;17.20;100.00;100484.06;4973495;28;20046;-53
2023/09/20 02:14:51;;;;;;;7.45;3.35;;;;;;;17.62;100.00;100560.28;4959803;28;20067;-47
2023/09/20 02:17:17;;;;;;;18.10;4.80;;;;;;;17.62;100.00;100550.50;4961160;28;20070;-47
2023/09/20 02:19:45;;;;;;;10.52;3.72;;;;;;;17.53;100.00;100531.56;4992338;28;20038;-48
2023/09/20 02:22:12;;;;;;;8.50;3.03;;;;;;;17.22;100.00;100469.72;4984321;28;20105;-49
2023/09/20 02:24:38;;;;;;;9.45;3.92;;;;;;;17.57;100.00;100527.78;4971503;28;20138;-51
2023/09/20 02:27:08;;;;;;;8.70;4.00;;;;;;;17.48;100.00;100526.56;4970913;28;20215;-51
2023/09/20 02:29:34;;;;;;;10.70;4.03;;;;;;;17.23;100.00;100498.03;4971416;28;20109;-51
2023/09/20 02:32:00;;;;;;;8.15;3.85;;;;;;;16.92;100.00;100444.28;4971237;28;20109;-50
2023/09/20 02:34:25;;;;;;;10.30;3.55;;;;;;;17.38;100.00;100523.63;4971921;28;20128;-51
2023/09/20 02:36:51;;;;;;;9.52;3.85;;;;;;;17.40;100.00;100513.75;4971115;28;20035;-52
2023/09/20 02:39:18;;;;;;;13.15;3.50;;;;;;;17.43;100.00;100513.53;4964335;28;20039;-50
2023/09/20 02:41:44;;;;;;;8.45;3.75;;;;;;;17.04;100.00;100448.81;4953339;28;20035;-52
2023/09/20 02:44:09;;;;;;;8.40;3.83;;;;;;;17.46;100.00;100499.19;4965976;28;20137;-49
2023/09/20 02:46:34;;;;;;;9.52;3.60;;;;;;;17.50;100.00;100494.50;4956109;28;20103;-53
2023/09/20 02:49:00;;;;;;;10.05;3.88;;;;;;;17.08;100.00;100429.88;4968516;28;20491;-48
2023/09/20 02:51:26;;;;;;;7.75;3.65;;;;;;;17.52;100.00;100514.75;4952274;28;20506;-52
2023/09/20 02:53:51;;;;;;;9.40;4.22;;;;;;;17.06;100.00;100418.50;4961045;28;20090;-50
2023/09/20 02:56:17;;;;;;;9.32;4.18;;;;;;;17.20;100.00;100447.69;4959347;28;20040;-51
2023/09/20 02:58:47;;;;;;;9.48;4.53;;;;;;;17.34;100.00;100458.28;4968610;28;20459;-49
2023/09/20 03:01:15;;;;;;;8.15;3.38;;;;;;;17.54;100.00;100483.56;4962787;28;20082;-48
2023/09/20 03:03:41;;;;;;;10.60;3.72;;;;;;;17.60;100.00;100493.00;4953218;28;20051;-55
2023/09/20 03:06:09;;;;;;;8.13;3.40;;;;;;;17.59;100.00;100493.94;4956523;28;20039;-54
2023/09/20 03:08:35;;;;;;;6.40;3.05;;;;;;;17.59;100.00;100485.94;4966518;28;20043;-53
2023/09/20 03:11:00;;;;;;;9.63;3.58;;;;;;;17.16;100.00;100408.13;4967684;28;20043;-50
2023/09/20 03:13:26;;;;;;;7.60;3.58;;;;;;;17.52;100.00;100473.97;4953009;28;20035;-50
2023/09/20 03:15:54;;;;;;;7.53;3.78;;;;;;;17.19;100.00;100426.53;4960639;28;20039;-51
2023/09/20 03:18:22;;;;;;;10.30;3.20;;;;;;;17.49;100.00;100461.72;4970356;28;20430;-51
2023/09/20 03:20:49;;;;;;;10.82;3.53;;;;;;;17.49;100.00;100458.19;4970913;28;20054;-51
2023/09/20 03:23:14;;;;;;;11.07;3.83;;;;;;;17.25;100.00;100416.31;4974343;28;20455;-50
2023/09/20 03:25:40;;;;;;;6.60;3.50;;;;;;;17.12;100.00;100406.59;4960650;28;20047;-48
2023/09/20 03:28:12;;;;;;;13.30;3.40;;;;;;;17.41;100.00;100464.91;4974048;28;20521;-52
2023/09/20 03:30:39;;;;;;;8.00;3.05;;;;;;;16.65;100.00;100340.59;4966752;28;20078;-50
2023/09/20 03:33:05;;;;;;;7.97;3.35;;;;;;;17.31;100.00;100458.47;4955149;28;20035;-51
2023/09/20 03:35:30;;;;;;;9.70;3.83;;;;;;;17.01;100.00;100420.63;4966864;28;20035;-50
2023/09/20 03:37:56;;;;;;;11.13;3.63;;;;;;;17.25;100.00;100453.56;4956882;29;20042;-53
2023/09/20 03:40:22;;;;;;;6.05;2.83;;;;;;;17.29;100.00;100457.72;4963346;28;20035;-48
2023/09/20 03:42:49;;;;;;;8.40;3.42;;;;;;;17.27;100.00;100449.00;4955731;28;20046;-51
2023/09/20 03:45:16;;;;;;;7.57;3.20;;;;;;;16.93;100.00;100391.00;4956260;28;20028;-49
2023/09/20 03:47:42;;;;;;;7.32;3.40;;;;;;;17.30;100.00;100458.59;4957458;28;20038;-51
2023/09/20 03:50:11;;;;;;;12.65;3.95;;;;;;;16.94;100.00;100402.47;4972073;28;20045;-55
2023/09/20 03:52:37;;;;;;;9.88;3.25;;;;;;;17.28;100.00;100448.03;4995225;28;20100;-52
2023/09/20 03:55:03;;;;;;;5.10;2.67;;;;;;;16.98;100.00;100391.56;4979071;28;20058;-50
2023/09/20 03:57:29;;;;;;;9.88;3.05;;;;;;;16.83;100.00;100382.78;4958263;28;20505;-51
2023/09/20 03:59:57;;;;;;;7.03;2.85;;;;;;;16.92;100.00;100364.53;4956978;28;20065;-48
2023/09/20 04:02:26;;;;;;;9.68;3.28;;;;;;;17.34;100.00;100433.47;4993463;28;20047;-51
2023/09/20 04:04:52;;;;;;;9.85;3.42;;;;;;;17.04;100.00;100375.22;4973475;28;20394;-53
2023/09/20 04:07:18;;;;;;;9.27;3.15;;;;;;;17.01;100.00;100377.22;4956812;28;20106;-50
2023/09/20 04:09:44;;;;;;;8.77;3.42;;;;;;;17.31;100.00;100426.56;4969168;28;20172;-53
2023/09/20 04:12:10;;;;;;;6.75;2.95;;;;;;;17.32;100.00;100428.25;4954784;29;20082;-51
2023/09/20 04:14:36;;;;;;;8.05;2.72;;;;;;;17.33;100.00;100423.81;4956865;28;20027;-52
2023/09/20 04:17:01;;;;;;;6.53;2.65;;;;;;;17.04;100.00;100364.56;4968573;28;20043;-49
2023/09/20 04:19:27;;;;;;;5.82;2.72;;;;;;;17.37;100.00;100428.81;4975108;28;20042;-50
2023/09/20 04:21:53;;;;;;;4.90;2.78;;;;;;;17.37;100.00;100415.50;4975266;28;20478;-50
2023/09/20 04:24:18;;;;;;;5.65;2.80;;;;;;;17.46;100.00;100416.69;4958596;28;20031;-51
2023/09/20 04:26:43;;;;;;;9.20;2.60;;;;;;;17.13;100.00;100347.97;4954908;28;20039;-52
2023/09/20 04:29:10;;;;;;;8.80;3.33;;;;;;;17.53;100.00;100417.13;4974944;28;20154;-54
2023/09/20 04:31:35;;;;;;;6.15;2.92;;;;;;;17.49;100.00;100408.50;4976641;28;20038;-55
2023/09/20 04:34:01;;;;;;;6.13;3.00;;;;;;;17.43;100.00;100399.13;4970380;28;20575;-55
2023/09/20 04:36:29;;;;;;;7.38;2.50;;;;;;;17.39;100.00;100402.97;4974006;28;20042;-49
2023/09/20 04:38:55;;;;;;;7.68;3.40;;;;;;;16.91;100.00;100317.63;4975032;28;20049;-53
2023/09/20 04:41:21;;;;;;;11.05;3.70;;;;;;;17.26;100.00;100388.78;4975032;28;20031;-51
2023/09/20 04:43:47;;;;;;;6.45;2.65;;;;;;;16.91;100.00;100350.38;4974780;28;20039;-53
2023/09/20 04:46:12;;;;;;;6.93;3.67;;;;;;;16.75;100.00;100325.78;4973860;28;20077;-51
2023/09/20 04:48:41;;;;;;;9.95;3.40;;;;;;;16.97;100.00;100376.56;4957714;28;20031;-53
2023/09/20 04:51:07;;;;;;;6.93;3.47;;;;;;;16.71;100.00;100335.75;4954203;29;20039;-55
2023/09/20 04:53:35;;;;;;;7.20;2.92;;;;;;;16.74;100.00;100340.00;4955455;28;20042;-53
2023/09/20 04:56:01;;;;;;;8.23;2.80;;;;;;;16.71;100.00;100330.44;4955334;28;20046;-52
2023/09/20 04:58:26;;;;;;;8.10;3.08;;;;;;;17.05;100.00;100402.63;4967917;28;20152;-49
2023/09/20 05:00:53;;;;;;;6.75;2.40;;;;;;;17.07;100.00;100396.28;4966784;28;20083;-52
2023/09/20 05:03:19;;;;;;;7.43;3.10;;;;;;;16.99;100.00;100392.44;4963413;28;20051;-48
2023/09/20 05:05:47;;;;;;;7.25;2.95;;;;;;;16.86;100.00;100373.75;4964354;28;20497;-50
2023/09/20 05:08:15;;;;;;;5.90;3.20;;;;;;;16.67;100.00;100338.69;4980597;28;20031;-48
2023/09/20 05:10:42;;;;;;;7.95;3.13;;;;;;;16.90;100.00;100377.06;4957809;28;20114;-51
2023/09/20 05:13:08;;;;;;;5.00;2.40;;;;;;;16.80;100.00;100350.22;4956177;28;20034;-54
2023/09/20 05:15:33;;;;;;;6.05;2.65;;;;;;;17.14;100.00;100399.38;4982109;28;20041;-50
2023/09/20 05:17:59;;;;;;;7.32;3.50;;;;;;;17.14;100.00;100394.91;4990077;28;20163;-47
2023/09/20 05:20:25;;;;;;;9.52;3.67;;;;;;;17.12;100.00;100388.84;4981711;28;20034;-51
2023/09/20 05:22:50;;;;;;;6.93;3.25;;;;;;;16.84;100.00;100338.47;4972558;28;20031;-52
2023/09/20 05:25:16;;;;;;;9.90;3.00;;;;;;;16.69;100.00;100312.88;4973336;28;20038;-48
2023/09/20 05:27:43;;;;;;;8.10;3.00;;;;;;;17.13;100.00;100379.88;4956966;28;20047;-50
2023/09/20 05:30:09;;;;;;;6.38;3.20;;;;;;;16.77;100.00;100331.81;4974292;28;20125;-51
2023/09/20 05:32:35;;;;;;;6.55;2.85;;;;;;;17.14;100.00;100391.38;4956509;28;20186;-51
2023/09/20 05:35:01;;;;;;;7.65;3.33;;;;;;;16.75;100.00;100325.78;4954212;29;20035;-50
2023/09/20 05:37:26;;;;;;;6.47;3.17;;;;;;;16.79;100.00;100330.78;4952674;28;20506;-47
2023/09/20 05:39:51;;;;;;;6.80;3.22;;;;;;;16.78;100.00;100325.56;4968995;28;20470;-48
2023/09/20 05:42:17;;;;;;;8.93;2.63;;;;;;;16.97;100.00;100354.44;4962013;28;20125;-52
2023/09/20 05:44:43;;;;;;;9.32;3.22;;;;;;;17.13;100.00;100382.56;4968191;28;20422;-51
2023/09/20 05:47:08;;;;;;;9.27;3.25;;;;;;;17.04;100.00;100377.00;4965285;28;20045;-52
2023/09/20 05:49:34;;;;;;;5.55;3.42;;;;;;;16.80;100.00;100347.56;4961557;28;20070;-49
2023/09/20 05:52:00;;;;;;;8.55;3.47;;;;;;;16.76;100.00;100344.25;4953266;29;20122;-50
2023/09/20 05:54:25;;;;;;;7.07;3.80;;;;;;;16.88;100.00;100345.25;4954256;29;20127;-50
2023/09/20 05:56:51;;;;;;;9.20;3.38;;;;;;;17.05;100.00;100374.22;4963287;28;20039;-49
2023/09/20 05:59:16;;;;;;;10.02;3.25;;;;;;;16.98;100.00;100372.94;4973947;28;20035;-52
2023/09/20 06:01:42;;;;;;;6.07;3.05;;;;;;;16.99;100.00;100371.97;4973513;28;20037;-50
2023/09/20 06:04:09;;;;;;;7.25;3.47;;;;;;;16.98;100.00;100383.59;4972726;28;20136;-49
2023/09/20 06:06:37;;;;;;;7.20;2.85;;;;;;;17.09;100.00;100385.53;4969091;28;20059;-50
2023/09/20 06:09:03;;;;;;;9.60;3.30;;;;;;;16.75;100.00;100318.63;4953197;28;20439;-50
2023/09/20 06:11:28;;;;;;;9.02;3.53;;;;;;;17.10;100.00;100382.78;4952794;29;20031;-51
2023/09/20 06:13:54;;;;;;;7.07;3.45;;;;;;;16.79;100.00;100327.25;4953660;28;20046;-50
2023/09/20 06:16:20;;;;;;;7.55;3.30;;;;;;;16.97;100.00;100352.63;4953803;28;20495;-51
2023/09/20 06:18:47;;;;;;;6.35;3.40;;;;;;;17.06;100.00;100377.75;4952934;29;20106;-51
2023/09/20 06:21:14;;;;;;;6.55;3.03;;;;;;;17.04;100.00;100363.72;4952338;29;20066;-49
2023/09/20 06:23:40;;;;;;;6.07;3.15;;;;;;;17.04;100.00;100364.56;4953422;28;20070;-50
2023/09/20 06:26:06;;;;;;;4.97;2.95;;;;;;;17.11;100.00;100371.16;4953629;29;20070;-50
2023/09/20 06:28:32;;;;;;;7.78;2.75;;;;;;;17.19;100.00;100397.28;4952454;29;20047;-51
2023/09/20 06:30:58;;;;;;;5.25;2.72;;;;;;;16.86;100.00;100324.09;4953927;29;20043;-51
2023/09/20 06:33:23;;;;;;;9.80;3.03;;;;;;;17.20;100.00;100380.34;4954236;29;20057;-52
2023/09/20 06:35:50;;;;;;;6.97;3.20;;;;;;;16.88;100.00;100324.00;4952597;29;20156;-53
2023/09/20 06:38:15;;;;;;;7.78;2.88;;;;;;;17.27;100.00;100386.97;4953214;28;20043;-55
2023/09/20 06:40:41;;;;;;;6.10;3.42;;;;;;;17.19;100.00;100374.16;4953757;29;20050;-52
2023/09/20 06:43:09;;;;;;;9.07;3.13;;;;;;;16.92;100.00;100319.31;4952093;29;20122;-49
2023/09/20 06:45:35;;;;;;;6.72;3.10;;;;;;;17.31;100.00;100373.34;4952880;29;20031;-51
2023/09/20 06:48:02;;;;;;;6.97;3.35;;;;;;;17.30;100.00;100381.44;4953682;28;20114;-49
2023/09/20 06:50:28;;;;;;;5.13;2.53;;;;;;;16.92;100.00;100314.00;4955373;28;20391;-51
2023/09/20 06:52:54;;;;;;;8.88;2.88;;;;;;;16.93;100.00;100321.88;4956989;28;20549;-47
2023/09/20 06:55:20;;;;;;;6.47;3.28;;;;;;;17.26;100.00;100364.84;4957282;28;20027;-49
2023/09/20 06:57:48;;;;;;;5.60;2.92;;;;;;;17.31;100.00;100364.50;4972302;28;20406;-48
2023/09/20 07:00:20;;;;;;;4.68;2.90;;;;;;;16.97;100.00;100314.53;4969892;28;20506;-54
2023/09/20 07:02:46;;;;;;;6.65;3.08;;;;;;;17.19;100.00;100350.22;4956258;29;20102;-52
2023/09/20 07:05:13;;;;;;;11.15;3.33;;;;;;;17.09;100.00;100329.69;4957415;28;20035;-52
2023/09/20 07:07:39;;;;;;;3.85;2.63;;;;;;;17.45;100.00;100386.56;4957384;28;20035;-51
2023/09/20 07:10:05;;;;;;;6.50;2.63;;;;;;;17.02;100.00;100301.78;4956919;28;20422;-53
2023/09/20 07:12:34;;;;;;;7.05;3.60;;;;;;;17.40;100.00;100385.16;4957342;28;20035;-50
2023/09/20 07:14:59;;;;;;;4.88;2.83;;;;;;;17.42;100.00;100400.06;4956006;29;20073;-53
2023/09/20 07:17:24;;;;;;;5.53;2.40;;;;;;;17.48;100.00;100390.84;4956754;28;20075;-51
2023/09/20 07:19:51;;;;;;;5.00;3.30;;;;;;;17.35;100.00;100369.53;4957005;28;20187;-52
2023/09/20 07:22:17;;;;;;;7.75;2.95;;;;;;;17.34;100.00;100372.28;4955867;29;20023;-51
2023/09/20 07:24:45;;;;;;;4.30;2.90;;;;;;;17.48;100.00;100393.50;4956780;28;20031;-52
2023/09/20 07:27:11;;;;;;;6.97;3.10;;;;;;;17.17;100.00;100327.34;4956603;28;20067;-51
2023/09/20 07:29:37;;;;;;;8.45;2.80;;;;;;;17.44;100.00;100392.00;4955738;29;20060;-54
2023/09/20 07:32:04;;;;;;;7.20;2.65;;;;;;;17.20;100.00;100341.31;4955619;29;20062;-52
2023/09/20 07:34:33;;;;;;;5.93;2.72;;;;;;;17.45;100.00;100391.06;4956063;28;20731;-48
2023/09/20 07:36:58;;;;;;;6.00;3.05;;;;;;;17.49;100.00;100416.47;4956652;28;20031;-51
2023/09/20 07:39:23;;;;;;;7.55;2.83;;;;;;;17.40;100.00;100427.75;4956660;28;20054;-50
2023/09/20 07:41:52;;;;;;;6.65;3.15;;;;;;;17.20;100.00;100386.53;4955320;29;20039;-49
2023/09/20 07:44:23;;;;;;;8.15;3.50;;;;;;;17.35;100.00;100413.91;4956320;28;20510;-48
2023/09/20 07:46:49;;;;;;;3.10;2.58;;;;;;;17.10;100.00;100380.13;4956575;28;20121;-50
2023/09/20 07:49:15;;;;;;;8.95;3.00;;;;;;;17.46;100.00;100456.59;4955125;29;20463;-53
2023/09/20 07:51:41;;;;;;;6.10;2.53;;;;;;;17.11;100.00;100383.59;4964067;28;20034;-53
2023/09/20 07:54:10;;;;;;;7.15;2.53;;;;;;;17.39;100.00;100432.25;4975728;28;20043;-50
2023/09/20 07:56:36;;;;;;;7.15;2.88;;;;;;;17.31;100.00;100401.75;4975375;28;20046;-52
2023/09/20 07:59:05;;;;;;;5.13;2.72;;;;;;;17.29;100.00;100407.19;4976114;28;20478;-50
2023/09/20 08:01:33;;;;;;;5.03;2.50;;;;;;;17.47;100.00;100437.03;4973328;28;20066;-49
2023/09/20 08:03:59;;;;;;;3.30;2.25;;;;;;;17.45;100.00;100421.16;4974166;28;20053;-51
2023/09/20 08:06:28;;;;;;;3.80;2.47;;;;;;;17.14;100.00;100365.66;4975225;28;20419;-51
2023/09/20 08:08:54;;;;;;;5.18;2.65;;;;;;;17.53;100.00;100423.31;4955632;28;20040;-51
2023/09/20 08:11:19;;;;;;;5.47;2.33;;;;;;;17.61;100.00;100433.47;4957305;28;20042;-49
2023/09/20 08:13:49;;;;;;;2.30;2.10;;;;;;;17.67;100.00;100436.56;4974154;28;20482;-50
2023/09/20 08:16:15;;;;;;;3.90;2.22;;;;;;;17.31;100.00;100368.03;4974888;28;20061;-50
2023/09/20 08:21:29;;;;;;;4.03;2.33;;;;;;;17.82;100.00;100440.00;4973309;28;20052;-52
2023/09/20 08:59:53;;;;;;;3.22;2.72;;;;;;;17.56;100.00;100377.91;4953730;29;20045;-50
2023/09/20 09:02:21;;;;;;;5.03;2.78;;;;;;;17.94;100.00;100429.38;4952198;29;20032;-49
2023/09/20 09:04:54;;;;;;;4.70;2.65;;;;;;;17.58;100.00;100359.16;4953352;29;20075;-55
2023/09/20 09:07:22;;;;;;;6.03;3.25;;;;;;;17.57;100.00;100365.47;4953743;29;20039;-53
2023/09/20 09:09:49;;;;;;;3.90;3.30;;;;;;;17.90;100.00;100432.31;4952011;29;20035;-53
2023/09/20 09:12:14;;;;;;;5.97;3.10;;;;;;;17.54;100.00;100393.09;4957980;28;20081;-53
2023/09/20 09:14:41;;;;;;;6.88;3.38;;;;;;;17.44;100.00;100371.56;4971133;28;20046;-54
2023/09/20 09:17:08;;;;;;;6.32;4.45;;;;;;;17.61;100.00;100409.50;4971312;28;20035;-53
2023/09/20 09:19:35;;;;;;;6.32;3.38;;;;;;;17.65;100.00;100403.88;4955438;28;20113;-53
2023/09/20 09:22:00;;;;;;;5.18;3.10;;;;;;;17.80;100.00;100429.47;4972325;28;20038;-49
2023/09/20 09:24:27;;;;;;;9.57;3.28;;;;;;;17.50;100.00;100374.78;4972061;28;20114;-50
2023/09/20 09:27:06;;;;;;;5.45;3.35;;;;;;;17.91;100.00;100424.25;4971156;28;20038;-55
2023/09/20 09:29:32;;;;;;;7.47;3.50;;;;;;;17.95;100.00;100411.56;4971070;28;20482;-54
2023/09/20 09:32:00;;;;;;;6.15;3.20;;;;;;;17.81;100.00;100358.41;4972272;28;20140;-54
2023/09/20 09:34:26;;;;;;;4.72;2.70;;;;;;;17.86;100.00;100365.13;4972148;28;20031;-54
2023/09/20 09:36:53;;;;;;;6.75;2.70;;;;;;;18.35;100.00;100421.13;4971894;28;20035;-57
2023/09/20 09:39:18;;;;;;;4.88;2.53;;;;;;;18.56;100.00;100426.78;4971955;28;20042;-51
2023/09/20 09:41:47;;;;;;;6.40;2.65;;;;;;;18.55;100.00;100422.41;4971893;28;20077;-57
2023/09/20 09:44:13;;;;;;;6.20;2.20;;;;;;;18.75;100.00;100421.81;4971459;28;20050;-53
2023/09/20 09:46:40;;;;;;;4.43;2.60;;;;;;;18.80;100.00;100432.13;4955551;28;20543;-55
2023/09/20 09:49:11;;;;;;;4.63;2.33;;;;;;;18.60;100.00;100366.09;4952648;29;20042;-52
2023/09/20 09:51:42;;;;;;;6.65;2.60;;;;;;;18.54;100.00;100367.38;4952505;29;20050;-48
2023/09/20 09:54:08;;;;;;;6.97;2.67;;;;;;;18.49;100.00;100377.53;4952634;29;20035;-55
2023/09/20 09:56:33;;;;;;;5.45;2.10;;;;;;;18.47;100.00;100355.44;4951230;29;20046;-51
2023/09/20 09:58:59;;;;;;;5.45;2.58;;;;;;;18.81;100.00;100416.03;4950759;29;20045;-53
2023/09/20 10:01:28;;;;;;;4.05;2.47;;;;;;;18.64;100.00;100364.91;4952321;28;20039;-55
2023/09/20 10:03:53;;;;;;;4.10;2.30;;;;;;;18.85;100.00;100395.34;4951035;29;20051;-52
2023/09/20 10:06:27;;;;;;;8.25;2.90;;;;;;;18.94;100.00;100400.00;4951356;29;20027;-51
2023/09/20 10:08:54;;;;;;;5.43;2.58;;;;;;;18.68;100.00;100327.22;4951090;29;20062;-54
2023/09/20 10:11:22;;;;;;;5.28;2.58;;;;;;;18.68;100.00;100321.06;4952552;28;20077;-53
2023/09/20 10:13:50;;;;;;;4.53;2.28;;;;;;;18.96;100.00;100388.25;4952224;28;20067;-51
2023/09/20 10:16:18;;;;;;;5.97;2.47;;;;;;;18.65;100.00;100307.97;4951160;29;20517;-54
2023/09/20 10:18:52;;;;;;;2.67;2.22;;;;;;;18.97;100.00;100381.94;4958189;28;20038;-54
2023/09/20 10:21:24;;;;;;;6.15;2.30;;;;;;;18.83;100.00;100373.25;4971619;28;20070;-52
2023/09/20 10:24:02;;;;;;;5.25;2.20;;;;;;;18.58;100.00;100328.03;4969893;28;20044;-52
2023/09/20 10:26:28;;;;;;;4.45;2.30;;;;;;;18.87;100.00;100385.41;4971444;28;20035;-55
2023/09/20 10:28:58;;;;;;;7.07;3.17;;;;;;;18.84;100.00;100393.63;4971963;28;20034;-53
2023/09/20 10:31:26;;;;;;;6.75;2.97;;;;;;;18.68;100.00;100372.56;4971653;28;20038;-49
2023/09/20 10:33:55;;;;;;;4.18;2.65;;;;;;;18.83;100.00;100384.78;4967866;28;20038;-51
2023/09/20 10:36:30;;;;;;;4.28;2.60;;;;;;;18.90;100.00;100385.19;4952191;29;20479;-51
2023/09/20 10:39:31;;;;;;;6.03;2.70;;;;;;;18.87;100.00;100366.72;4951304;29;20075;-53
2023/09/20 10:42:14;;;;;;;10.95;3.35;;;;;;;18.91;100.00;100373.56;4949782;29;20046;-51
2023/09/20 10:44:42;;;;;;;5.07;2.55;;;;;;;18.94;100.00;100370.66;4950777;29;20044;-50
2023/09/20 10:47:12;;;;;;;3.75;2.83;;;;;;;19.06;100.00;100357.25;4950796;29;20035;-51
2023/09/20 10:49:37;;;;;;;3.83;2.70;;;;;;;19.27;100.00;100384.13;4951722;29;20045;-49
2023/09/20 10:52:03;;;;;;;5.32;3.03;;;;;;;19.37;100.00;100377.16;4950744;28;20039;-51
2023/09/20 10:54:30;;;;;;;4.35;2.65;;;;;;;19.26;100.00;100299.72;4950931;29;20031;-50
2023/09/20 10:57:04;;;;;;;6.00;2.67;;;;;;;19.33;100.00;100278.72;4950872;29;20098;-54
2023/09/20 10:59:31;;;;;;;5.40;3.58;;;;;;;19.81;100.00;100364.88;4951447;29;20107;-51
2023/09/20 11:02:12;;;;;;;3.50;2.70;;;;;;;19.93;100.00;100371.94;4950876;29;20043;-51
2023/09/20 11:04:38;;;;;;;5.38;2.70;;;;;;;19.32;100.00;100293.88;4949579;29;20135;-49
2023/09/20 11:07:04;;;;;;;4.75;2.90;;;;;;;19.43;100.00;100319.81;4948549;28;20073;-50
2023/09/20 11:09:38;;;;;;;6.95;3.28;;;;;;;19.76;100.00;100375.91;4951971;28;22523;-53
2023/09/20 11:12:08;;;;;;;7.38;2.95;;;;;;;19.39;100.00;100303.16;4969644;28;20383;-55
2023/09/20 11:14:36;;;;;;;6.43;2.92;;;;;;;19.71;100.00;100387.91;4958246;28;20035;-50
2023/09/20 11:17:03;;;;;;;7.15;3.00;;;;;;;19.29;100.00;100303.97;4950038;28;20486;-53
2023/09/20 11:19:29;;;;;;;6.57;3.20;;;;;;;19.64;100.00;100369.69;4950175;29;20031;-53
2023/09/20 11:21:55;;;;;;;5.35;3.10;;;;;;;19.60;100.00;100365.59;4951643;29;20043;-54
2023/09/20 11:24:23;;;;;;;5.05;3.15;;;;;;;19.51;100.00;100352.94;4949841;29;20082;-53
2023/09/20 11:26:48;;;;;;;4.80;2.60;;;;;;;19.01;100.00;100270.53;4951434;28;20047;-52
2023/09/20 11:29:16;;;;;;;7.55;3.20;;;;;;;19.85;100.00;100353.00;4951608;29;20041;-51
2023/09/20 11:31:43;;;;;;;6.22;3.28;;;;;;;21.05;100.00;100368.16;4950115;29;20114;-54
2023/09/20 11:34:08;;;;;;;5.10;2.72;;;;;;;22.09;100.00;100305.59;4949573;28;20031;-51
2023/09/20 11:36:44;;;;;;;5.75;2.70;;;;;;;23.24;100.00;100410.50;4953011;28;20035;-51
2023/09/20 11:39:09;;;;;;;6.13;3.05;;;;;;;23.81;100.00;100433.84;4953745;29;20098;-53
2023/09/20 11:41:36;;;;;;;5.47;3.05;;;;;;;24.22;100.00;100375.31;4953807;28;20479;-55
2023/09/20 11:44:05;;;;;;;5.03;2.80;;;;;;;24.50;100.00;100446.97;4953099;29;20082;-55
2023/09/20 11:46:33;;;;;;;5.07;2.67;;;;;;;24.59;100.00;100424.56;4954005;28;20043;-57
2023/09/20 11:48:59;;;;;;;4.82;2.38;;;;;;;24.67;100.00;100448.00;4953033;29;20530;-56
2023/09/20 11:51:25;;;;;;;4.78;2.80;;;;;;;24.73;100.00;100421.34;4953263;29;20507;-54
2023/09/20 11:53:51;;;;;;;6.75;3.25;;;;;;;24.94;100.00;100437.28;4953790;29;20101;-53
2023/09/20 11:56:29;;;;;;;5.28;2.47;;;;;;;24.99;100.00;100418.81;4953315;29;20483;-54